createdAt,value
2019-03-23T00:01:00.611Z,100.17
2019-03-23T00:04:05.522Z,93.20
2019-03-23T00:07:10.507Z,95.67
2019-03-23T00:10:15.404Z,90.73
2019-03-23T00:13:20.378Z,95.03
2019-03-23T00:16:25.310Z,93.63
2019-03-23T00:19:30.217Z,96.87
2019-03-23T00:22:35.046Z,91.23
2019-03-23T00:25:39.955Z,90.73
2019-03-23T00:28:44.765Z,88.60
2019-03-23T00:31:49.885Z,87.27
2019-03-23T00:34:54.723Z,89.73
2019-03-23T00:37:59.575Z,86.13
2019-03-23T00:41:04.469Z,88.03
2019-03-23T00:44:10.814Z,88.03
2019-03-23T00:47:15.705Z,81.37
2019-03-23T00:50:20.654Z,83.30
2019-03-23T00:53:25.555Z,80.13
2019-03-23T00:56:30.491Z,78.67
2019-03-23T00:59:35.455Z,72.03
2019-03-23T01:02:41.913Z,79.33
2019-03-23T01:05:47.063Z,74.80
2019-03-23T01:08:52.061Z,74.67
2019-03-23T01:11:56.999Z,82.33
2019-03-23T01:15:02.056Z,76.30
2019-03-23T01:18:06.931Z,79.20
2019-03-23T01:21:11.825Z,78.67
2019-03-23T01:24:16.716Z,75.10
2019-03-23T01:27:21.654Z,76.20
2019-03-23T01:30:26.533Z,87.83
2019-03-23T01:33:32.678Z,81.47
2019-03-23T01:36:37.578Z,88.90
2019-03-23T01:39:42.531Z,82.77
2019-03-23T01:42:47.409Z,90.63
2019-03-23T01:45:52.343Z,95.90
2019-03-23T01:48:57.246Z,99.63
2019-03-23T01:52:02.210Z,96.53
2019-03-23T01:55:08.867Z,87.37
2019-03-23T01:58:13.779Z,98.23
2019-03-23T02:01:18.610Z,99.57
2019-03-23T02:04:24.053Z,98.73
2019-03-23T02:07:28.953Z,92.03
2019-03-23T02:10:33.872Z,95.07
2019-03-23T02:13:38.672Z,105.60
2019-03-23T02:16:43.624Z,89.33
2019-03-23T02:19:48.462Z,99.60
2019-03-23T02:22:53.385Z,90.60
2019-03-23T02:25:58.270Z,89.50
2019-03-23T02:29:03.187Z,88.80
2019-03-23T02:32:08.077Z,94.07
2019-03-23T02:35:13.018Z,94.33
2019-03-23T02:38:17.879Z,97.43
2019-03-23T02:41:22.808Z,83.73
2019-03-23T02:44:27.712Z,85.30
2019-03-23T02:47:32.656Z,87.37
2019-03-23T02:50:37.548Z,90.60
2019-03-23T02:53:42.489Z,85.30
2019-03-23T02:56:47.379Z,82.13
2019-03-23T02:59:52.276Z,84.60
2019-03-23T03:02:57.094Z,81.23
2019-03-23T03:06:02.049Z,77.53
2019-03-23T03:09:07.663Z,81.03
2019-03-23T03:12:12.565Z,81.73
2019-03-23T03:15:36.235Z,81.47
2019-03-23T03:18:41.213Z,78.17
2019-03-23T03:21:46.140Z,83.53
2019-03-23T03:24:51.043Z,76.13
2019-03-23T03:27:55.964Z,77.57
2019-03-23T03:31:00.945Z,88.90
2019-03-23T03:34:05.812Z,83.17
2019-03-23T03:37:10.757Z,84.27
2019-03-23T03:40:15.751Z,79.10
2019-03-23T03:43:20.716Z,83.50
2019-03-23T03:46:25.555Z,84.13
2019-03-23T03:49:30.514Z,80.53
2019-03-23T03:52:35.415Z,88.03
2019-03-23T03:55:40.336Z,84.33
2019-03-23T03:58:45.224Z,88.97
2019-03-23T04:01:50.129Z,90.20
2019-03-23T04:04:54.952Z,94.67
2019-03-23T04:08:10.460Z,89.17
2019-03-23T04:11:06.712Z,97.63
2019-03-23T04:14:11.623Z,90.00
2019-03-23T04:17:16.519Z,98.13
2019-03-23T04:20:21.452Z,105.37
2019-03-23T04:23:26.340Z,93.53
2019-03-23T04:26:31.263Z,98.53
2019-03-23T04:29:36.134Z,98.30
2019-03-23T04:32:41.048Z,99.13
2019-03-23T04:35:45.966Z,105.67
2019-03-23T04:38:50.907Z,98.50
2019-03-23T04:41:55.791Z,106.80
2019-03-23T04:45:00.727Z,98.00
2019-03-23T04:48:05.615Z,93.27
2019-03-23T04:51:10.595Z,96.10
2019-03-23T04:54:15.469Z,104.90
2019-03-23T04:57:20.363Z,96.47
2019-03-23T05:00:25.260Z,102.07
2019-03-23T05:03:30.187Z,100.30
2019-03-23T05:06:35.071Z,95.43
2019-03-23T05:09:39.899Z,90.73
2019-03-23T05:12:44.788Z,84.73
2019-03-23T05:15:49.703Z,76.37
2019-03-23T05:18:54.512Z,72.63
2019-03-23T05:21:59.460Z,78.10
2019-03-23T05:25:04.558Z,72.17
2019-03-23T05:28:09.456Z,67.70
2019-03-23T05:31:14.352Z,56.17
2019-03-23T05:34:19.260Z,60.33
2019-03-23T05:37:24.164Z,55.73
2019-03-23T05:40:28.999Z,58.07
2019-03-23T05:43:33.831Z,54.93
2019-03-23T05:46:38.684Z,48.67
2019-03-23T05:49:43.539Z,46.73
2019-03-23T05:52:48.485Z,54.47
2019-03-23T05:55:53.294Z,51.70
2019-03-23T05:58:58.211Z,53.40
2019-03-23T06:02:03.089Z,50.07
2019-03-23T06:05:08.243Z,46.43
2019-03-23T06:08:13.119Z,49.77
2019-03-23T06:11:18.148Z,50.67
2019-03-23T06:14:23.804Z,44.27
2019-03-23T06:17:28.725Z,48.73
2019-03-23T06:20:33.605Z,45.47
2019-03-23T06:23:38.570Z,47.43
2019-03-23T06:26:43.465Z,43.37
2019-03-23T06:29:48.376Z,44.90
2019-03-23T06:32:53.258Z,45.33
2019-03-23T06:35:58.180Z,46.57
2019-03-23T06:39:05.703Z,46.70
2019-03-23T06:42:09.854Z,54.47
2019-03-23T06:45:14.858Z,45.30
2019-03-23T06:48:19.798Z,51.03
2019-03-23T06:51:24.683Z,52.70
2019-03-23T06:54:29.634Z,47.40
2019-03-23T06:57:34.538Z,48.00
2019-03-23T07:00:39.491Z,50.20
2019-03-23T07:03:44.393Z,48.33
2019-03-23T07:06:49.172Z,50.00
2019-03-23T07:09:54.040Z,50.00
2019-03-23T07:12:59.331Z,49.90
2019-03-23T07:16:04.160Z,53.70
2019-03-23T07:19:09.089Z,48.10
2019-03-23T07:22:13.971Z,48.27
2019-03-23T07:25:18.935Z,48.50
2019-03-23T07:28:23.840Z,48.27
2019-03-23T07:31:28.747Z,48.77
2019-03-23T07:34:33.646Z,49.33
2019-03-23T07:37:38.578Z,51.47
2019-03-23T07:40:43.750Z,51.33
2019-03-23T07:43:48.859Z,52.87
2019-03-23T07:46:53.761Z,51.67
2019-03-23T07:49:58.807Z,53.13
2019-03-23T07:53:03.716Z,52.27
2019-03-23T07:56:08.694Z,53.33
2019-03-23T07:59:13.633Z,59.07
2019-03-23T08:02:19.526Z,55.40
2019-03-23T08:05:24.469Z,59.57
2019-03-23T08:08:29.391Z,60.67
2019-03-23T08:11:34.269Z,59.37
2019-03-23T08:14:39.304Z,60.90
2019-03-23T08:17:44.319Z,60.53
2019-03-23T08:20:49.265Z,65.37
2019-03-23T08:23:54.158Z,58.23
2019-03-23T08:26:59.123Z,61.43
2019-03-23T08:30:04.378Z,61.03
2019-03-23T08:33:09.312Z,60.07
2019-03-23T08:36:14.206Z,64.17
2019-03-23T08:39:19.156Z,63.00
2019-03-23T08:42:24.030Z,64.30
2019-03-23T08:45:28.941Z,63.40
2019-03-23T08:48:33.834Z,63.30
2019-03-23T08:51:38.771Z,65.07
2019-03-23T08:54:43.643Z,61.60
2019-03-23T08:57:48.606Z,71.80
2019-03-23T09:00:53.498Z,69.37
2019-03-23T09:03:58.410Z,66.30
2019-03-23T09:07:03.319Z,65.23
2019-03-23T09:10:08.730Z,63.70
2019-03-23T09:13:13.654Z,62.80
2019-03-23T09:16:18.586Z,66.80
2019-03-23T09:19:23.483Z,66.33
2019-03-23T09:22:28.427Z,61.50
2019-03-23T09:25:33.358Z,59.13
2019-03-23T09:28:38.320Z,59.47
2019-03-23T09:31:45.153Z,60.27
2019-03-23T09:34:50.004Z,64.93
2019-03-23T09:37:54.812Z,58.83
2019-03-23T09:40:59.736Z,55.00
2019-03-23T09:44:04.640Z,58.13
2019-03-23T09:47:09.492Z,56.53
2019-03-23T09:50:14.464Z,57.40
2019-03-23T09:53:19.409Z,58.80
2019-03-23T09:56:24.291Z,59.13
2019-03-23T09:59:29.308Z,53.80
2019-03-23T10:02:34.219Z,55.97
2019-03-23T10:05:39.157Z,59.47
2019-03-23T10:08:46.346Z,53.17
2019-03-23T10:11:50.761Z,58.97
2019-03-23T10:14:55.698Z,58.90
2019-03-23T10:18:01.681Z,59.43
2019-03-23T10:21:06.841Z,57.77
2019-03-23T10:24:11.757Z,54.90
2019-03-23T10:27:16.580Z,54.40
2019-03-23T10:30:21.548Z,55.50
2019-03-23T10:33:26.374Z,54.13
2019-03-23T10:36:31.216Z,52.50
2019-03-23T10:39:36.142Z,50.27
2019-03-23T10:42:43.240Z,48.77
2019-03-23T10:45:47.615Z,46.17
2019-03-23T10:48:52.546Z,49.10
2019-03-23T10:51:57.446Z,49.07
2019-03-23T10:55:02.390Z,45.43
2019-03-23T10:58:07.276Z,41.43
2019-03-23T11:01:12.239Z,48.00
2019-03-23T11:04:17.070Z,45.70
2019-03-23T11:07:21.980Z,48.97
2019-03-23T11:10:26.863Z,49.83
2019-03-23T11:13:31.903Z,46.73
2019-03-23T11:16:36.829Z,47.47
2019-03-23T11:19:41.746Z,42.50
2019-03-23T11:22:46.632Z,45.73
2019-03-23T11:25:51.579Z,53.40
2019-03-23T11:28:56.477Z,41.40
2019-03-23T11:32:01.447Z,45.00
2019-03-23T11:35:08.117Z,43.80
2019-03-23T11:38:13.143Z,41.90
2019-03-23T11:41:18.060Z,44.20
2019-03-23T11:44:23.041Z,41.63
2019-03-23T11:47:27.950Z,43.63
2019-03-23T11:50:32.884Z,41.90
2019-03-23T11:53:37.738Z,41.30
2019-03-23T11:56:42.705Z,38.20
2019-03-23T11:59:47.598Z,34.50
2019-03-23T12:02:52.537Z,36.67
2019-03-23T12:05:57.486Z,38.07
2019-03-23T12:09:02.439Z,38.70
2019-03-23T12:12:07.393Z,44.83
2019-03-23T12:15:12.736Z,39.07
2019-03-23T12:18:17.626Z,41.03
2019-03-23T12:21:22.548Z,40.20
2019-03-23T12:24:27.440Z,35.27
2019-03-23T12:27:32.366Z,33.00
2019-03-23T12:30:37.265Z,36.43
2019-03-23T12:33:42.255Z,34.63
2019-03-23T12:36:47.148Z,36.97
2019-03-23T12:39:52.111Z,35.67
2019-03-23T12:42:57.044Z,31.03
2019-03-23T12:46:01.980Z,34.60
2019-03-23T12:49:06.998Z,37.70
2019-03-23T12:52:12.062Z,30.67
2019-03-23T12:55:16.986Z,34.20
2019-03-23T12:58:22.896Z,33.93
2019-03-23T13:01:29.059Z,33.23
2019-03-23T13:04:34.085Z,33.93
2019-03-23T13:07:39.012Z,30.70
2019-03-23T13:10:43.926Z,32.30
2019-03-23T13:13:48.855Z,32.60
2019-03-23T13:16:53.776Z,33.00
2019-03-23T13:19:58.728Z,32.67
2019-03-23T13:23:04.760Z,33.97
2019-03-23T13:26:09.747Z,30.60
2019-03-23T13:29:14.719Z,27.87
2019-03-23T13:32:19.639Z,31.17
2019-03-23T13:35:24.660Z,29.33
2019-03-23T13:38:29.571Z,31.70
2019-03-23T13:41:34.532Z,34.47
2019-03-23T13:44:39.440Z,29.20
2019-03-23T13:47:44.377Z,30.50
2019-03-23T13:50:49.251Z,29.83
2019-03-23T13:53:54.119Z,28.60
2019-03-23T13:56:59.095Z,30.90
2019-03-23T14:00:04.805Z,30.10
2019-03-23T14:03:09.746Z,30.67
2019-03-23T14:06:14.704Z,33.57
2019-03-23T14:09:19.570Z,27.27
2019-03-23T14:12:24.493Z,29.50
2019-03-23T14:15:29.410Z,28.57
2019-03-23T14:18:35.844Z,27.53
2019-03-23T14:21:40.853Z,31.47
2019-03-23T14:24:45.777Z,27.37
2019-03-23T14:27:50.906Z,31.37
2019-03-23T14:30:55.853Z,29.00
2019-03-23T14:34:00.790Z,29.70
2019-03-23T14:37:06.131Z,29.13
2019-03-23T14:40:11.327Z,30.00
2019-03-23T14:43:16.252Z,31.73
2019-03-23T14:46:21.136Z,27.97
2019-03-23T14:49:25.964Z,28.30
2019-03-23T14:52:30.777Z,30.30
2019-03-23T14:55:37.493Z,29.07
2019-03-23T14:59:00.864Z,27.90
2019-03-23T15:02:05.818Z,28.30
2019-03-23T15:05:10.712Z,27.77
2019-03-23T15:08:15.672Z,28.70
2019-03-23T15:11:27.871Z,28.33
2019-03-23T15:14:32.716Z,27.57
2019-03-23T15:17:37.551Z,26.97
2019-03-23T15:20:42.478Z,24.70
2019-03-23T15:23:47.406Z,28.87
2019-03-23T15:26:52.347Z,27.63
2019-03-23T15:29:57.147Z,26.30
2019-03-23T15:33:02.016Z,25.87
2019-03-23T15:36:06.925Z,22.23
2019-03-23T15:39:11.845Z,23.73
2019-03-23T15:42:24.442Z,23.37
2019-03-23T15:45:23.314Z,22.13
2019-03-23T15:48:28.749Z,25.53
2019-03-23T15:51:33.847Z,25.57
2019-03-23T15:54:38.664Z,29.13
2019-03-23T15:57:43.542Z,21.67
2019-03-23T16:00:48.507Z,22.97
2019-03-23T16:03:53.449Z,26.57
2019-03-23T16:06:58.387Z,25.83
2019-03-23T16:10:03.393Z,26.97
2019-03-23T16:13:08.290Z,28.27
2019-03-23T16:16:13.230Z,25.33
2019-03-23T16:19:18.131Z,27.83
2019-03-23T16:22:23.075Z,36.07
2019-03-23T16:25:27.956Z,28.40
2019-03-23T16:28:32.816Z,34.20
2019-03-23T16:31:37.732Z,37.60
2019-03-23T16:34:42.695Z,41.77
2019-03-23T16:37:47.726Z,39.30
2019-03-23T16:40:52.763Z,38.67
2019-03-23T16:43:57.700Z,40.97
2019-03-23T16:47:02.620Z,45.37
2019-03-23T16:50:09.878Z,47.53
2019-03-23T16:53:14.812Z,51.10
2019-03-23T16:56:19.793Z,52.53
2019-03-23T16:59:24.674Z,65.10
2019-03-23T17:02:29.602Z,99.53
2019-03-23T17:05:38.109Z,105.83
2019-03-23T17:08:43.024Z,132.87
2019-03-23T17:11:48.019Z,134.70
2019-03-23T17:14:52.954Z,187.17
2019-03-23T17:17:57.955Z,227.70
2019-03-23T17:21:03.908Z,261.60
2019-03-23T17:24:08.910Z,242.90
2019-03-23T17:27:13.854Z,174.00
2019-03-23T17:30:18.790Z,183.00
2019-03-23T17:33:24.771Z,178.83
2019-03-23T17:36:29.746Z,182.83
2019-03-23T17:39:34.643Z,168.73
2019-03-23T17:42:39.590Z,179.47
2019-03-23T17:45:44.623Z,164.67
2019-03-23T17:48:49.554Z,151.20
2019-03-23T17:51:55.521Z,154.97
2019-03-23T17:55:00.649Z,152.77
2019-03-23T17:58:05.558Z,144.50
2019-03-23T18:01:19.338Z,147.97
2019-03-23T18:04:18.506Z,145.33
2019-03-23T18:07:23.461Z,134.27
2019-03-23T18:10:28.391Z,139.07
2019-03-23T18:13:33.355Z,134.60
2019-03-23T18:16:38.325Z,141.90
2019-03-23T18:19:43.245Z,135.90
2019-03-23T18:22:48.150Z,142.13
2019-03-23T18:25:53.069Z,141.40
2019-03-23T18:28:58.014Z,156.67
2019-03-23T18:32:03.016Z,155.70
2019-03-23T18:35:08.182Z,174.47
2019-03-23T18:38:13.172Z,201.00
2019-03-23T18:41:18.077Z,222.43
2019-03-23T18:44:23.064Z,229.67
2019-03-23T18:47:27.961Z,244.37
2019-03-23T18:50:33.001Z,245.43
2019-03-23T18:53:37.913Z,268.70
2019-03-23T18:56:42.885Z,259.07
2019-03-23T18:59:47.799Z,278.53
2019-03-23T19:02:52.753Z,272.53
2019-03-23T19:05:57.679Z,275.77
2019-03-23T19:09:02.760Z,272.47
2019-03-23T19:12:07.712Z,275.63
2019-03-23T19:15:12.812Z,273.70
2019-03-23T19:18:17.833Z,279.93
2019-03-23T19:21:22.775Z,265.60
2019-03-23T19:24:28.193Z,264.37
2019-03-23T19:27:33.301Z,267.30
2019-03-23T19:30:38.212Z,266.90
2019-03-23T19:33:43.163Z,253.73
2019-03-23T19:36:48.091Z,256.17
2019-03-23T19:39:53.059Z,250.77
2019-03-23T19:42:59.665Z,239.67
2019-03-23T19:46:04.716Z,242.37
2019-03-23T19:49:09.628Z,225.50
2019-03-23T19:52:14.658Z,231.13
2019-03-23T19:55:19.714Z,224.17
2019-03-23T19:58:24.671Z,228.33
2019-03-23T20:01:29.607Z,241.57
2019-03-23T20:04:34.560Z,241.47
2019-03-23T20:07:39.428Z,252.87
2019-03-23T20:10:44.367Z,257.20
2019-03-23T20:13:58.393Z,268.37
2019-03-23T20:16:56.387Z,269.30
2019-03-23T20:20:01.451Z,288.97
2019-03-23T20:23:06.396Z,299.80
2019-03-23T20:26:11.569Z,286.83
2019-03-23T20:29:16.961Z,309.53
2019-03-23T20:32:21.899Z,313.83
2019-03-23T20:35:27.616Z,334.47
2019-03-23T20:38:35.984Z,317.83
2019-03-23T20:41:40.947Z,334.97
2019-03-23T20:44:45.864Z,312.67
2019-03-23T20:47:50.980Z,327.90
2019-03-23T20:50:55.879Z,310.37
2019-03-23T20:54:01.117Z,314.87
2019-03-23T20:57:06.019Z,324.23
2019-03-23T21:00:10.932Z,319.13
2019-03-23T21:03:15.871Z,314.13
2019-03-23T21:06:20.831Z,322.33
2019-03-23T21:09:25.755Z,328.23
2019-03-23T21:12:30.702Z,330.80
2019-03-23T21:15:35.615Z,328.07
2019-03-23T21:18:40.546Z,316.60
2019-03-23T21:21:45.516Z,325.03
2019-03-23T21:24:50.448Z,320.23
2019-03-23T21:27:55.728Z,323.47
2019-03-23T21:31:00.797Z,308.30
2019-03-23T21:34:06.202Z,310.00
2019-03-23T21:37:11.156Z,289.47
2019-03-23T21:40:16.190Z,281.07
2019-03-23T21:43:21.157Z,281.20
2019-03-23T21:46:26.228Z,266.37
2019-03-23T21:49:31.240Z,258.60
2019-03-23T21:52:36.333Z,250.90
2019-03-23T21:55:41.446Z,237.53
2019-03-23T21:58:46.408Z,244.83
2019-03-23T22:01:51.460Z,230.90
2019-03-23T22:04:56.364Z,229.73
2019-03-23T22:08:01.480Z,227.47
2019-03-23T22:11:08.384Z,224.50
2019-03-23T22:14:15.232Z,217.07
2019-03-23T22:17:20.128Z,210.57
2019-03-23T22:20:25.098Z,209.93
2019-03-23T22:23:30.088Z,202.20
2019-03-23T22:26:35.002Z,210.27
2019-03-23T22:29:40.804Z,198.73
2019-03-23T22:32:45.661Z,200.43
2019-03-23T22:35:52.403Z,201.57
2019-03-23T22:38:57.269Z,200.47
2019-03-23T22:42:02.198Z,190.63
2019-03-23T22:45:07.516Z,181.60
2019-03-23T22:48:12.691Z,183.03
2019-03-23T22:51:17.624Z,184.97
2019-03-23T22:54:22.560Z,181.77
2019-03-23T22:57:27.501Z,175.60
2019-03-23T23:00:41.723Z,182.50
2019-03-23T23:03:46.669Z,175.47
2019-03-23T23:06:51.573Z,173.50
2019-03-23T23:09:56.439Z,168.60
2019-03-23T23:13:01.680Z,173.37
2019-03-23T23:16:06.529Z,171.60
2019-03-23T23:19:11.530Z,173.17
2019-03-23T23:22:16.487Z,174.17
2019-03-23T23:25:21.447Z,171.53
2019-03-23T23:28:27.865Z,169.37
2019-03-23T23:31:32.812Z,152.87
2019-03-23T23:34:37.735Z,166.60
2019-03-23T23:37:43.319Z,165.33
2019-03-23T23:40:48.361Z,167.80
2019-03-23T23:43:53.232Z,164.90
2019-03-23T23:46:58.174Z,162.13
2019-03-23T23:50:03.084Z,168.33
2019-03-23T23:53:08.227Z,179.47
2019-03-23T23:56:13.752Z,173.70
2019-03-23T23:59:18.668Z,178.20
